In Rescue
 
Open Full Screen Window  High Contrast Mode
May 25, 2022 10:59 PM EDT
Weather Information
Wind Direction
  ---
Wind Speed
  00 kt (0 mph)
Wind Gust
  00 kt (0 mph)
Altimeter
29.99 in
Visibility
10 SM
Temperature
18° C
64° F
Dewpoint
13° C
55° F
Humidity
73%
Sky Condition
Clear
VFR

METAR KVLL 260259Z AUTO 00000KT 10SM CLR 18/13 A2999 RMK AO2 T01830125

FAA Disclaimer: The data displayed is for advisory purposes only and is not to be used for flight planning or operations.